createdAt,value
2019-02-15T00:02:46.256Z,60
2019-02-15T00:07:42.830Z,60
2019-02-15T00:12:38.781Z,59.6
2019-02-15T00:17:35.269Z,59.4
2019-02-15T00:22:31.653Z,59.9
2019-02-15T00:27:28.037Z,59.6
2019-02-15T00:32:23.905Z,59.7
2019-02-15T00:37:20.320Z,59.9
2019-02-15T00:42:16.734Z,60.4
2019-02-15T00:47:13.183Z,60.8
2019-02-15T00:52:09.395Z,60.8
2019-02-15T00:57:05.807Z,61.1
2019-02-15T01:02:02.315Z,61.7
2019-02-15T01:06:58.508Z,61.7
2019-02-15T01:11:54.844Z,62.4
2019-02-15T01:16:51.267Z,62
2019-02-15T01:21:47.690Z,62
2019-02-15T01:26:44.188Z,62.2
2019-02-15T01:31:40.806Z,62.6
2019-02-15T01:36:37.351Z,62.8
2019-02-15T01:41:33.569Z,63.2
2019-02-15T01:46:29.983Z,63.6
2019-02-15T01:51:26.518Z,63.4
2019-02-15T01:56:23.033Z,63.4
2019-02-15T02:01:19.262Z,64.2
2019-02-15T02:06:15.705Z,64.4
2019-02-15T02:11:12.200Z,65.3
2019-02-15T02:16:08.527Z,65.9
2019-02-15T02:21:04.728Z,65.2
2019-02-15T02:26:01.326Z,65.4
2019-02-15T02:30:57.664Z,64.9
2019-02-15T02:35:53.978Z,65.2
2019-02-15T02:40:50.406Z,64.8
2019-02-15T02:45:46.907Z,65
2019-02-15T02:50:43.384Z,65.8
2019-02-15T02:55:39.696Z,65.7
2019-02-15T03:00:36.085Z,65.4
2019-02-15T03:05:32.475Z,65.1
2019-02-15T03:10:29.218Z,66
2019-02-15T03:15:25.637Z,66.5
2019-02-15T03:20:30.733Z,67
2019-02-15T03:25:18.863Z,66.7
2019-02-15T03:30:15.329Z,67
2019-02-15T03:35:11.745Z,66.9
2019-02-15T03:40:07.857Z,66.7
2019-02-15T03:45:04.447Z,66.4
2019-02-15T03:50:00.950Z,67
2019-02-15T03:54:57.365Z,67.7
2019-02-15T03:59:54.183Z,67.7
2019-02-15T04:04:50.502Z,67.5
2019-02-15T04:09:46.988Z,67.5
2019-02-15T04:14:43.304Z,67.1
2019-02-15T04:19:39.536Z,67.4
2019-02-15T04:24:36.123Z,67.5
2019-02-15T04:29:32.654Z,68
2019-02-15T04:34:29.038Z,68
2019-02-15T04:39:25.395Z,68.4
2019-02-15T04:44:21.940Z,68.2
2019-02-15T04:49:18.395Z,68.4
2019-02-15T04:54:14.853Z,67.9
2019-02-15T04:59:11.197Z,67.8
2019-02-15T05:04:07.875Z,68.1
2019-02-15T05:09:04.094Z,67.8
2019-02-15T05:14:00.360Z,67.6
2019-02-15T05:18:56.626Z,67.2
2019-02-15T05:23:53.041Z,66.1
2019-02-15T05:28:49.378Z,67
2019-02-15T05:33:45.711Z,67.1
2019-02-15T05:38:41.779Z,67.3
2019-02-15T05:43:37.867Z,67.3
2019-02-15T05:48:33.829Z,67.2
2019-02-15T05:53:30.482Z,67.3
2019-02-15T05:58:26.755Z,67.6
2019-02-15T06:03:23.082Z,67.3
2019-02-15T06:08:19.010Z,67.6
2019-02-15T06:13:15.386Z,67.2
2019-02-15T06:18:12.222Z,67
2019-02-15T06:23:08.589Z,66.3
2019-02-15T06:28:04.659Z,66.3
2019-02-15T06:33:01.061Z,66.4
2019-02-15T06:37:57.258Z,66
2019-02-15T06:42:53.512Z,65.7
2019-02-15T06:47:49.519Z,65
2019-02-15T06:52:45.976Z,64.5
2019-02-15T06:57:42.387Z,64.5
2019-02-15T07:02:39.063Z,64.2
2019-02-15T07:07:35.512Z,64.1
2019-02-15T07:12:32.053Z,62.7
2019-02-15T07:17:28.158Z,63.3
2019-02-15T07:22:24.803Z,63.3
2019-02-15T07:27:20.958Z,62.2
2019-02-15T07:32:17.416Z,62.7
2019-02-15T07:37:13.631Z,62.2
2019-02-15T07:42:09.968Z,62.9
2019-02-15T07:47:06.074Z,62.5
2019-02-15T07:52:02.539Z,62.4
2019-02-15T07:56:58.997Z,61.8
2019-02-15T08:02:01.558Z,60.1
2019-02-15T08:06:51.850Z,59.4
2019-02-15T08:11:48.349Z,58.3
2019-02-15T08:16:44.551Z,59
2019-02-15T08:21:41.114Z,59
2019-02-15T08:26:37.820Z,59.1
2019-02-15T08:31:34.032Z,58.8
2019-02-15T08:36:30.426Z,58.4
2019-02-15T08:41:27.203Z,58.7
2019-02-15T08:46:23.781Z,58.3
2019-02-15T08:51:19.910Z,58.1
2019-02-15T08:56:16.372Z,57.7
2019-02-15T09:01:12.676Z,57.5
2019-02-15T09:06:09.185Z,57.5
2019-02-15T09:11:05.850Z,57.1
2019-02-15T09:16:09.959Z,56.7
2019-02-15T09:20:59.026Z,56.8
2019-02-15T09:25:54.984Z,56.5
2019-02-15T09:30:51.400Z,56.2
2019-02-15T09:35:47.763Z,56.7
2019-02-15T09:40:44.365Z,57
2019-02-15T09:45:40.585Z,56.1
2019-02-15T09:50:37.076Z,56.7
2019-02-15T09:55:33.818Z,55
2019-02-15T10:00:30.109Z,54.6
2019-02-15T10:05:26.651Z,53.9
2019-02-15T10:10:23.119Z,52.8
2019-02-15T10:15:19.775Z,52.4
2019-02-15T10:20:16.277Z,52.6
2019-02-15T10:25:12.669Z,52.7
2019-02-15T10:30:09.168Z,54
2019-02-15T10:35:05.421Z,53.2
2019-02-15T10:40:02.194Z,52.9
2019-02-15T10:44:58.286Z,53.5
2019-02-15T10:49:54.360Z,53.8
2019-02-15T10:54:50.269Z,54.9
2019-02-15T10:59:46.961Z,55
2019-02-15T11:04:43.106Z,55.9
2019-02-15T11:09:39.676Z,55.5
2019-02-15T11:14:35.978Z,56.4
2019-02-15T11:19:32.266Z,55.7
2019-02-15T11:24:28.539Z,56.1
2019-02-15T11:29:25.084Z,58.4
2019-02-15T11:34:21.018Z,58.4
2019-02-15T11:39:17.533Z,57.6
2019-02-15T11:44:13.653Z,57.3
2019-02-15T11:49:10.324Z,57.4
2019-02-15T11:54:06.499Z,57
2019-02-15T11:59:03.040Z,57.2
2019-02-15T12:03:58.958Z,58.2
2019-02-15T12:08:55.490Z,58.4
2019-02-15T12:13:52.155Z,58.9
2019-02-15T12:18:48.560Z,59.1
2019-02-15T12:23:45.093Z,58.9
2019-02-15T12:28:41.579Z,59
2019-02-15T12:33:37.872Z,59.3
2019-02-15T12:38:33.277Z,59.8
2019-02-15T12:43:29.822Z,59.8
2019-02-15T12:48:26.355Z,59.4
2019-02-15T12:53:22.892Z,59.8
2019-02-15T12:58:19.277Z,57.7
2019-02-15T13:03:15.637Z,57.7
2019-02-15T13:08:12.462Z,57.8
2019-02-15T13:13:09.354Z,57.8
2019-02-15T13:18:09.317Z,57.6
2019-02-15T13:23:05.642Z,58.3
2019-02-15T13:28:02.270Z,58.4
2019-02-15T13:32:58.876Z,60
2019-02-15T13:42:51.700Z,64.3
2019-02-15T13:47:48.361Z,65.4
2019-02-15T13:52:44.708Z,65.8
2019-02-15T13:57:41.356Z,65.4
2019-02-15T14:02:37.920Z,64.8
2019-02-15T14:07:34.478Z,64
2019-02-15T14:12:30.885Z,63.8
2019-02-15T14:17:27.140Z,63.3
2019-02-15T14:22:23.806Z,63.4
2019-02-15T14:27:19.909Z,63.6
2019-02-15T14:32:16.340Z,62.8
2019-02-15T14:37:12.768Z,63.3
2019-02-15T14:42:09.331Z,63.2
2019-02-15T14:47:05.833Z,63.1
2019-02-15T14:52:01.976Z,63.2
2019-02-15T14:56:58.122Z,62.8
2019-02-15T15:01:54.406Z,63
2019-02-15T15:06:50.873Z,63
2019-02-15T15:11:47.230Z,63.4
2019-02-15T15:16:43.698Z,63.7
2019-02-15T15:21:40.321Z,63.9
2019-02-15T15:26:36.786Z,63.3
2019-02-15T15:31:33.188Z,62.9
2019-02-15T15:36:29.788Z,62.7
2019-02-15T15:41:26.034Z,62.2
2019-02-15T15:46:22.601Z,62
2019-02-15T15:51:19.013Z,61.6
2019-02-15T15:56:15.515Z,60.9
2019-02-15T16:01:11.791Z,61.2
2019-02-15T16:11:04.070Z,61.2
2019-02-15T16:16:00.582Z,60.8
2019-02-15T16:20:56.594Z,60.9
2019-02-15T16:25:53.246Z,61.4
2019-02-15T16:30:49.689Z,60.5
2019-02-15T16:35:46.712Z,60.8
2019-02-15T16:40:43.180Z,59.9
2019-02-15T16:45:39.233Z,59.4
2019-02-15T16:50:35.323Z,59.7
2019-02-15T16:55:31.819Z,59.3
2019-02-15T17:00:27.078Z,60.2
2019-02-15T17:05:23.546Z,59.8
2019-02-15T17:10:19.907Z,60.2
2019-02-15T17:15:16.301Z,60
2019-02-15T17:20:12.185Z,60
2019-02-15T17:25:08.811Z,60.2
2019-02-15T17:30:05.094Z,59.5
2019-02-15T17:35:01.500Z,59.2
2019-02-15T17:39:57.874Z,59
2019-02-15T17:44:54.291Z,58.8
2019-02-15T17:49:50.485Z,58.8
2019-02-15T17:54:46.388Z,59.1
2019-02-15T17:59:42.941Z,58.7
2019-02-15T18:04:39.198Z,58.6
2019-02-15T18:09:35.529Z,58.6
2019-02-15T18:14:31.830Z,58.7
2019-02-15T18:19:27.938Z,58.7
2019-02-15T18:24:24.719Z,58.8
2019-02-15T18:29:21.059Z,58.1
2019-02-15T18:34:17.613Z,57.3
2019-02-15T18:39:14.103Z,57.7
2019-02-15T18:44:10.572Z,57.2
2019-02-15T18:49:06.931Z,57.7
2019-02-15T18:54:03.484Z,57.9
2019-02-15T18:58:59.945Z,57.5
2019-02-15T19:03:56.680Z,57.5
2019-02-15T19:08:53.151Z,57.7
2019-02-15T19:13:49.459Z,57.9
2019-02-15T19:18:45.701Z,57.8
2019-02-15T19:23:42.400Z,57.6
2019-02-15T19:28:38.978Z,58
2019-02-15T19:33:35.440Z,57.7
2019-02-15T19:38:31.890Z,57.2
2019-02-15T19:43:28.480Z,57.2
2019-02-15T19:48:24.839Z,57.3
2019-02-15T19:53:21.400Z,57.4
2019-02-15T19:58:17.444Z,57.3
2019-02-15T20:03:14.027Z,56.5
2019-02-15T20:13:07.049Z,56.8
2019-02-15T20:18:03.508Z,56.9
2019-02-15T20:22:59.858Z,57.2
2019-02-15T20:27:56.383Z,57.2
2019-02-15T20:32:52.993Z,57.2
2019-02-15T20:37:49.430Z,56.4
2019-02-15T20:42:46.165Z,57
2019-02-15T20:47:42.562Z,57.1
2019-02-15T20:52:39.076Z,57
2019-02-15T20:57:35.211Z,56.5
2019-02-15T21:02:31.874Z,56.4
2019-02-15T21:07:28.286Z,55.9
2019-02-15T21:12:24.534Z,55.4
2019-02-15T21:17:20.739Z,55
2019-02-15T21:22:17.048Z,55.4
2019-02-15T21:27:12.893Z,55.9
2019-02-15T21:32:09.539Z,55.5
2019-02-15T21:37:06.102Z,55.5
2019-02-15T21:42:02.742Z,55.5
2019-02-15T21:46:59.176Z,55.4
2019-02-15T21:51:55.621Z,55.2
2019-02-15T21:56:52.013Z,55.1
2019-02-15T22:01:48.612Z,55.1
2019-02-15T22:06:44.920Z,55.2
2019-02-15T22:11:41.389Z,55
2019-02-15T22:16:37.437Z,55.1
2019-02-15T22:21:33.653Z,54.7
2019-02-15T22:26:30.304Z,54.8
2019-02-15T22:31:26.915Z,54.7
2019-02-15T22:36:23.103Z,54.6
2019-02-15T22:41:19.559Z,54.7
2019-02-15T22:46:15.839Z,55.2
2019-02-15T22:51:12.372Z,55.4
2019-02-15T22:56:08.576Z,56.1
2019-02-15T23:01:05.297Z,56
2019-02-15T23:06:02.094Z,55.9
2019-02-15T23:10:58.528Z,56
2019-02-15T23:15:54.837Z,56.1
2019-02-15T23:20:51.301Z,56.1
2019-02-15T23:25:47.645Z,56.4
2019-02-15T23:30:44.228Z,56.2
2019-02-15T23:35:40.727Z,55.9
2019-02-15T23:40:37.322Z,55.4
2019-02-15T23:45:33.888Z,55.8
2019-02-15T23:50:30.465Z,55.2
2019-02-15T23:55:26.442Z,55.7
